Airfield :
LOGIN :

Register | Disclaimer

   EN    FR    IT 

 










Legend :    VFR   Marginal VFR   IFR   Intensive IFR   Very Intensive IFR
Visi :
Ceiling :
>= 8 km
>= 3000ft
5 to 8 km
1000 to 3000 ft
1500m to 5 km
500 to 1000 ft
800 to 1500m
200 to 500 ft
< 800m
< 200 ft
Symbols :   Thunderstorms  Fog  Heavy snow  Heavy precipitations  Wind > 20 kt
SIGMETs :     Misc.  Thunderstorms  Icing  Turbulence  Mountain Waves  Volcanic Ashes






- Airport Elevation : 1416 ft
- IATA code : ZRH


LSZH - Zurich

CURRENT METAR :
  • 232250Z 32006KT 9000 NSC 11/10 Q1011 NOSIG

EXPIRED METARs :
  • 232220Z 33006KT 8000 NSC 11/10 Q1011 NOSIG
  • 232150Z 32008KT 8000 NSC 12/11 Q1010 NOSIG
  • 232120Z 32005KT 8000 NSC 11/10 Q1010 NOSIG
  • 232050Z 29004KT 230V320 8000 NSC 11/10 Q1011 NOSIG
  • 232020Z VRB02KT 9000 NSC 11/10 Q1011 NOSIG

TAF TAF LSZH
Valid from the 23 at 21:00 until the 25 at 03:00 UTC


232025Z 2321/2503 VRB03KT 9000 NSC TX17/2415Z TN10/2404Z
PROB40 2322/2407 3500 BR SCT008
BECMG 2413/2416 BKN070
ATIS : +41 43 816 2295 (DEP) +41 43 816 2294 (ARR)



MET'MAP, your aeronautical weather chart ! - Copyright ORBIFLY December 2007 - Disclaimer

ORBIFLY MET'MAP TEAM :

Programming & Development : Alexandra Zaïnal
Concept & Development : Baudouin d'Aumeries
Co-Development & Prog : Marc-Olivier Méhu
Technical & hardware support : Manuel Goepfert

Contact : metmap@orbifly.com




SOURCES & CREDITS :

   NOAA